Pampa, TX

3:09 AM CST on February 07, 2016 (GMT -0600)
Perry Lefors | | Change Station
CLOSE
Current Station
Airport
Location: Pampa,
Elevation: 3245 ft
Nearby Weather Stations

Elev 3245 ft 35.61 °N, 101.00 °W | Updated 14 minutes ago

Clear
Clear
35 °F
Feels Like 27 °F
N
13
Wind Variable Wind from SW

Today
High -- | Low -- °F
--% Chance of Precip.
Yesterday
High -- | Low -- °F
Precip. -- in
Pressure 30.10 in
Visibility 10.0 miles
Clouds Clear
Windchill 27 °F
Dew Point 17 °F
Humidity 47%
Rainfall 0.00 in
Snow Depth Not available.
7:39 AM 6:17 PM
Waning Crescent, 2% visible
METAR KPPA 070855Z AUTO 22011KT 10SM CLR 02/M08 A3010 RMK AO2 T00191085
Pressure 30.10 in
Visibility 10.0 miles
Clouds Clear
Windchill 27 °F
Dew Point 17 °F
Humidity 47%
Rainfall 0.00 in
Snow Depth Not available.
7:39 AM 6:17 PM
Waning Crescent, 2% visible
METAR KPPA 070855Z AUTO 22011KT 10SM CLR 02/M08 A3010 RMK AO2 T00191085

10-Day Weather Forecast

Almanac

Astronomy

Feb. 07, 2016 Rise Set
Actual Time
Civil Twilight
Nautical Twilight
Astronomical Twilight
Moon
Length of Visible Light
Length of Day
Tomorrow will be .
, % of the Moon is Illuminated

Today's Extremes

State Highs State Lows

Community

WunderPhotos

Upload Photos

1,891,171 photos uploaded!

WunderBlog® & News

Nearby

Air Quality

  Air Quality AQ Index Pollutant
Not available.

Snow Depth

Station Depth Elevation

Earthquake Activity

City Distance Mag. Time & Date
Minimum magnitude displayed is 2.5.

Coastal Water Temperatures

Place Temperature

Stations

Nearby Weather Stations

Station Location Temp. Windchill Dew Point Humidity Wind Precip. Elev Updated Type
                   

Watches & Warnings

There are currently no watches in effect.